createdAt,value
2022-12-09T00:01:20.120Z,0.50
2022-12-09T00:05:23.249Z,0.50
2022-12-09T00:09:27.467Z,0.40
2022-12-09T00:13:30.931Z,0.40
2022-12-09T00:17:33.907Z,0.40
2022-12-09T00:21:46.262Z,0.30
2022-12-09T00:25:51.836Z,0.30
2022-12-09T00:29:54.933Z,0.30
2022-12-09T00:33:59.304Z,0.20
2022-12-09T00:38:02.467Z,0.20
2022-12-09T00:42:06.904Z,0.20
2022-12-09T00:46:10.508Z,0.20
2022-12-09T00:50:20.602Z,0.20
2022-12-09T00:54:23.523Z,0.10
2022-12-09T00:58:28.105Z,0.10
2022-12-09T01:02:31.266Z,0.00
2022-12-09T01:06:34.436Z,0.00
2022-12-09T01:10:38.126Z,0.00
2022-12-09T01:14:48.583Z,0.00
2022-12-09T01:18:51.925Z,0.00
2022-12-09T01:22:54.953Z,0.10
2022-12-09T01:26:57.884Z,0.10
2022-12-09T01:31:07.207Z,0.20
2022-12-09T01:35:24.914Z,0.20
2022-12-09T01:39:27.853Z,0.20
2022-12-09T01:43:31.077Z,0.30
2022-12-09T01:47:35.606Z,0.30
2022-12-09T01:51:39.061Z,0.40
2022-12-09T01:55:42.287Z,0.40
2022-12-09T01:59:45.927Z,0.50
2022-12-09T02:03:50.738Z,0.50
2022-12-09T02:07:53.770Z,0.50
2022-12-09T02:12:01.171Z,0.50
2022-12-09T02:16:06.148Z,0.60
2022-12-09T02:20:16.164Z,0.60
2022-12-09T02:24:21.439Z,0.50
2022-12-09T02:28:49.471Z,0.50
2022-12-09T02:33:03.722Z,0.50
2022-12-09T02:37:11.501Z,0.40
2022-12-09T02:41:17.763Z,0.40
2022-12-09T02:45:40.849Z,0.40
2022-12-09T02:49:44.285Z,0.30
2022-12-09T02:53:50.489Z,0.20
2022-12-09T02:57:54.875Z,0.20
2022-12-09T03:02:02.323Z,0.10
2022-12-09T03:06:08.280Z,0.10
2022-12-09T03:10:25.238Z,0.10
2022-12-09T03:14:33.008Z,0.00
2022-12-09T03:18:37.947Z,0.00
2022-12-09T03:22:41.985Z,-0.10
2022-12-09T03:26:46.661Z,-0.10
2022-12-09T03:30:57.445Z,-0.10
2022-12-09T03:39:04.211Z,-0.20
2022-12-09T03:43:11.531Z,-0.20
2022-12-09T03:47:14.654Z,-0.30
2022-12-09T03:51:41.271Z,-0.30
2022-12-09T03:55:47.619Z,-0.30
2022-12-09T03:59:54.786Z,-0.40
2022-12-09T04:03:58.404Z,-0.40
2022-12-09T04:08:01.584Z,-0.40
2022-12-09T04:12:21.647Z,-0.40
2022-12-09T04:16:26.034Z,-0.40
2022-12-09T04:20:28.992Z,-0.30
2022-12-09T04:24:31.894Z,-0.30
2022-12-09T04:28:34.800Z,-0.30
2022-12-09T04:32:51.788Z,-0.20
2022-12-09T04:36:56.218Z,-0.20
2022-12-09T04:41:00.293Z,-0.10
2022-12-09T04:45:03.401Z,-0.10
2022-12-09T04:49:06.316Z,0.00
2022-12-09T04:53:10.590Z,0.00
2022-12-09T04:57:13.858Z,0.00
2022-12-09T05:01:18.525Z,0.10
2022-12-09T05:05:26.291Z,0.10
2022-12-09T05:09:31.019Z,0.10
2022-12-09T05:13:35.346Z,0.10
2022-12-09T05:17:38.515Z,0.20
2022-12-09T05:21:44.128Z,0.20
2022-12-09T05:25:48.642Z,0.20
2022-12-09T05:29:51.543Z,0.30
2022-12-09T05:33:54.788Z,0.30
2022-12-09T05:37:58.365Z,0.30
2022-12-09T05:42:02.577Z,0.30
2022-12-09T05:46:06.719Z,0.30
2022-12-09T05:50:10.500Z,0.40
2022-12-09T05:54:14.335Z,0.40
2022-12-09T05:58:18.873Z,0.40
2022-12-09T06:02:22.049Z,0.50
2022-12-09T06:06:26.749Z,0.40
2022-12-09T06:10:30.439Z,0.50
2022-12-09T06:14:36.019Z,0.50
2022-12-09T06:18:39.324Z,0.50
2022-12-09T06:22:42.514Z,0.50
2022-12-09T06:26:45.476Z,0.50
2022-12-09T06:30:51.232Z,0.40
2022-12-09T06:34:54.543Z,0.40
2022-12-09T06:39:00.408Z,0.30
2022-12-09T06:43:06.248Z,0.30
2022-12-09T06:47:10.612Z,0.20
2022-12-09T06:51:13.800Z,0.20
2022-12-09T06:55:17.585Z,0.10
2022-12-09T06:59:20.608Z,0.10
2022-12-09T07:03:25.449Z,0.00
2022-12-09T07:07:28.726Z,-0.10
2022-12-09T07:11:31.968Z,-0.10
2022-12-09T07:15:36.472Z,-0.20
2022-12-09T07:19:40.943Z,-0.20
2022-12-09T07:23:44.249Z,-0.20
2022-12-09T07:27:47.216Z,-0.30
2022-12-09T07:31:52.802Z,-0.30
2022-12-09T07:35:57.621Z,-0.30
2022-12-09T07:40:00.976Z,-0.30
2022-12-09T07:44:04.876Z,-0.30
2022-12-09T07:48:08.675Z,-0.30
2022-12-09T07:52:13.962Z,-0.30
2022-12-09T07:56:17.712Z,-0.40
2022-12-09T08:00:21.368Z,-0.40
2022-12-09T08:04:24.704Z,-0.30
2022-12-09T08:08:29.288Z,-0.30
2022-12-09T08:12:32.563Z,-0.30
2022-12-09T08:16:35.863Z,-0.30
2022-12-09T08:20:39.913Z,-0.30
2022-12-09T08:24:44.256Z,-0.20
2022-12-09T08:28:47.737Z,-0.10
2022-12-09T08:32:50.971Z,-0.10
2022-12-09T08:37:00.289Z,0.00
2022-12-09T08:41:10.670Z,0.00
2022-12-09T08:45:13.848Z,0.10
2022-12-09T08:49:18.948Z,0.20
2022-12-09T08:53:22.265Z,0.30
2022-12-09T08:57:28.779Z,0.40
2022-12-09T09:01:35.384Z,0.50
2022-12-09T09:05:39.237Z,0.70
2022-12-09T09:09:42.414Z,0.90
2022-12-09T09:13:48.763Z,1.10
2022-12-09T09:17:53.307Z,1.30
2022-12-09T09:21:56.961Z,1.60
2022-12-09T09:26:00.491Z,1.90
2022-12-09T09:30:07.658Z,2.30
2022-12-09T09:34:11.432Z,2.70
2022-12-09T09:38:14.646Z,3.10
2022-12-09T09:42:19.024Z,3.40
2022-12-09T09:46:28.662Z,3.70
2022-12-09T09:50:33.701Z,4.10
2022-12-09T09:54:37.121Z,4.70
2022-12-09T09:58:53.430Z,5.20
2022-12-09T10:03:01.590Z,5.80
2022-12-09T10:07:11.581Z,6.30
2022-12-09T10:11:18.180Z,6.80
2022-12-09T10:15:23.518Z,7.20
2022-12-09T10:19:30.045Z,7.40
2022-12-09T10:23:33.380Z,7.70
2022-12-09T10:27:38.921Z,7.80
2022-12-09T10:31:42.972Z,7.80
2022-12-09T10:35:48.489Z,7.80
2022-12-09T10:39:53.547Z,7.70
2022-12-09T10:44:16.794Z,7.50
2022-12-09T10:48:21.061Z,7.30
2022-12-09T10:52:27.055Z,7.40
2022-12-09T10:56:31.474Z,7.70
2022-12-09T11:00:35.132Z,8.30
2022-12-09T11:04:39.700Z,9.00
2022-12-09T11:08:51.575Z,9.60
2022-12-09T11:16:59.663Z,10.40
2022-12-09T11:21:03.900Z,10.60
2022-12-09T11:25:16.545Z,10.60
2022-12-09T11:29:20.260Z,10.40
2022-12-09T11:33:26.641Z,10.30
2022-12-09T11:37:32.187Z,10.30
2022-12-09T11:41:54.153Z,10.30
2022-12-09T11:45:57.143Z,10.60
2022-12-09T11:50:04.965Z,11.40
2022-12-09T11:58:15.011Z,12.00
2022-12-09T12:02:22.930Z,12.40
2022-12-09T12:06:27.463Z,12.80
2022-12-09T12:14:36.760Z,13.30
2022-12-09T12:18:42.642Z,13.60
2022-12-09T12:23:00.344Z,13.80
2022-12-09T12:27:08.368Z,13.90
2022-12-09T12:31:21.131Z,13.80
2022-12-09T12:35:39.608Z,13.40
2022-12-09T12:39:49.926Z,12.80
2022-12-09T12:44:18.830Z,12.20
2022-12-09T12:48:27.967Z,11.60
2022-12-09T12:57:06.348Z,10.40
2022-12-09T13:01:15.992Z,9.80
2022-12-09T13:05:22.417Z,9.30
2022-12-09T13:09:28.134Z,8.90
2022-12-09T13:13:33.139Z,8.40
2022-12-09T13:17:36.071Z,8.10
2022-12-09T13:21:40.528Z,7.80
2022-12-09T13:25:47.326Z,7.50
2022-12-09T13:29:53.075Z,7.30
2022-12-09T13:34:00.193Z,7.10
2022-12-09T13:38:04.631Z,6.90
2022-12-09T13:42:47.441Z,6.80
2022-12-09T13:46:50.540Z,6.60
2022-12-09T13:50:57.341Z,6.40
2022-12-09T13:55:01.612Z,6.30
2022-12-09T13:59:14.378Z,6.20
2022-12-09T14:03:30.377Z,6.00
2022-12-09T14:07:35.533Z,5.90
2022-12-09T14:11:44.417Z,5.80
2022-12-09T14:15:48.384Z,5.60
2022-12-09T14:19:53.344Z,5.50
2022-12-09T14:24:16.826Z,5.40
2022-12-09T14:28:42.284Z,5.30
2022-12-09T14:32:54.252Z,5.20
2022-12-09T14:37:01.450Z,5.00
2022-12-09T14:41:07.407Z,4.90
2022-12-09T14:45:17.586Z,4.80
2022-12-09T14:49:22.087Z,4.70
2022-12-09T14:53:33.934Z,4.60
2022-12-09T14:57:38.839Z,4.50
2022-12-09T15:01:49.556Z,4.40
2022-12-09T15:06:03.549Z,4.30
2022-12-09T15:10:08.521Z,4.20
2022-12-09T15:14:29.721Z,4.10
2022-12-09T15:18:34.910Z,3.90
2022-12-09T15:22:37.990Z,3.80
2022-12-09T15:26:40.931Z,3.70
2022-12-09T15:30:44.822Z,3.60
2022-12-09T15:34:49.042Z,3.50
2022-12-09T15:38:54.589Z,3.40
2022-12-09T15:43:05.024Z,3.30
2022-12-09T15:47:10.454Z,3.20
2022-12-09T15:51:18.801Z,3.10
2022-12-09T15:55:23.562Z,3.00
2022-12-09T15:59:29.826Z,2.90
2022-12-09T16:03:37.790Z,2.80
2022-12-09T16:07:56.318Z,2.70
2022-12-09T16:11:59.374Z,2.60
2022-12-09T16:16:03.689Z,2.50
2022-12-09T16:20:23.228Z,2.40
2022-12-09T16:24:44.122Z,2.30
2022-12-09T16:28:55.353Z,2.20
2022-12-09T16:32:59.258Z,2.10
2022-12-09T16:37:05.305Z,2.00
2022-12-09T16:41:14.649Z,2.00
2022-12-09T16:45:21.668Z,1.90
2022-12-09T16:49:24.526Z,1.80
2022-12-09T16:53:28.839Z,1.80
2022-12-09T16:57:33.172Z,1.70
2022-12-09T17:01:39.710Z,1.70
2022-12-09T17:05:47.583Z,1.60
2022-12-09T17:09:51.173Z,1.60
2022-12-09T17:13:56.821Z,1.50
2022-12-09T17:18:01.560Z,1.50
2022-12-09T17:22:04.871Z,1.40
2022-12-09T17:26:08.966Z,1.30
2022-12-09T17:30:14.134Z,1.30
2022-12-09T17:34:17.222Z,1.20
2022-12-09T17:38:20.205Z,1.10
2022-12-09T17:42:23.064Z,1.00
2022-12-09T17:46:27.482Z,0.90
2022-12-09T17:50:30.369Z,0.90
2022-12-09T17:54:33.364Z,0.80
2022-12-09T17:58:36.325Z,0.80
2022-12-09T18:02:40.660Z,0.70
2022-12-09T18:06:44.773Z,0.70
2022-12-09T18:10:47.609Z,0.60
2022-12-09T18:14:50.598Z,0.60
2022-12-09T18:18:54.973Z,0.60
2022-12-09T18:22:58.885Z,0.50
2022-12-09T18:31:06.472Z,0.40
2022-12-09T18:35:11.088Z,0.40
2022-12-09T18:39:15.571Z,0.30
2022-12-09T18:43:18.445Z,0.30
2022-12-09T18:47:21.394Z,0.20
2022-12-09T18:51:25.833Z,0.20
2022-12-09T18:55:28.669Z,0.10
2022-12-09T18:59:32.155Z,0.10
2022-12-09T19:03:35.005Z,0.00
2022-12-09T19:07:39.202Z,0.00
2022-12-09T19:11:42.502Z,-0.20
2022-12-09T19:15:45.495Z,-0.10
2022-12-09T19:19:49.592Z,-0.10
2022-12-09T19:23:54.188Z,-0.10
2022-12-09T19:27:57.039Z,-0.20
2022-12-09T19:32:00.037Z,-0.20
2022-12-09T19:36:03.690Z,-0.30
2022-12-09T19:40:08.996Z,-0.40
2022-12-09T19:44:21.544Z,-0.40
2022-12-09T19:48:35.222Z,-0.40
2022-12-09T19:52:38.118Z,-0.40
2022-12-09T19:56:42.623Z,-0.50
2022-12-09T20:00:45.457Z,-0.50
2022-12-09T20:04:50.206Z,-0.60
2022-12-09T20:08:53.779Z,-0.60
2022-12-09T20:12:57.991Z,-0.60
2022-12-09T20:17:00.861Z,-0.70
2022-12-09T20:21:04.309Z,-0.70
2022-12-09T20:25:07.664Z,-0.70
2022-12-09T20:29:12.019Z,-0.70
2022-12-09T20:33:14.875Z,-0.70
2022-12-09T20:37:17.857Z,-0.80
2022-12-09T20:41:21.281Z,-0.70
2022-12-09T20:45:25.508Z,-0.80
2022-12-09T20:49:29.833Z,-0.80
2022-12-09T20:53:32.940Z,-0.70
2022-12-09T20:57:35.830Z,-0.70
2022-12-09T21:01:40.286Z,-0.70
2022-12-09T21:05:43.418Z,-0.70
2022-12-09T21:09:46.313Z,-0.70
2022-12-09T21:13:50.125Z,-0.70
2022-12-09T21:17:55.100Z,-0.70
2022-12-09T21:21:57.988Z,-0.70
2022-12-09T21:26:03.844Z,-0.70
2022-12-09T21:30:07.790Z,-0.70
2022-12-09T21:34:12.286Z,-0.70
2022-12-09T21:38:15.222Z,-0.70
2022-12-09T21:42:24.130Z,-0.70
2022-12-09T21:46:28.147Z,-0.70
2022-12-09T21:50:32.375Z,-0.70
2022-12-09T21:54:36.276Z,-0.80
2022-12-09T21:58:39.411Z,-0.80
2022-12-09T22:02:44.231Z,-0.80
2022-12-09T22:06:49.482Z,-0.80
2022-12-09T22:10:52.403Z,-0.80
2022-12-09T22:14:55.869Z,-0.80
2022-12-09T22:18:59.811Z,-0.80
2022-12-09T22:23:04.251Z,-0.80
2022-12-09T22:27:07.130Z,-0.80
2022-12-09T22:31:10.754Z,-0.70
2022-12-09T22:35:13.663Z,-0.70
2022-12-09T22:39:19.029Z,-0.70
2022-12-09T22:43:21.958Z,-0.70
2022-12-09T22:47:25.773Z,-0.70
2022-12-09T22:51:30.554Z,-0.60
2022-12-09T22:55:34.911Z,-0.60
2022-12-09T22:59:42.837Z,-0.60
2022-12-09T23:03:47.407Z,-0.60
2022-12-09T23:07:50.274Z,-0.50
2022-12-09T23:11:54.753Z,-0.50
2022-12-09T23:16:00.704Z,-0.50
2022-12-09T23:20:03.597Z,-0.40
2022-12-09T23:24:07.540Z,-0.40
2022-12-09T23:28:12.589Z,-0.40
2022-12-09T23:32:15.439Z,-0.30
2022-12-09T23:36:18.830Z,-0.30
2022-12-09T23:40:21.694Z,-0.30
2022-12-09T23:44:25.907Z,-0.20
2022-12-09T23:48:28.725Z,-0.20
2022-12-09T23:52:31.545Z,-0.20
2022-12-09T23:56:36.555Z,-0.10
